sensor_id;sensor_type;location;lat;lon;timestamp;pressure;altitude;pressure_sealevel;temperature
77728;BMP280;68312;53.502;10.030;2023-03-14T00:00:58;99025.09;;;10.71
77728;BMP280;68312;53.502;10.030;2023-03-14T00:03:23;99027.97;;;10.59
77728;BMP280;68312;53.502;10.030;2023-03-14T00:05:49;99031.47;;;10.70
77728;BMP280;68312;53.502;10.030;2023-03-14T00:08:15;99045.19;;;10.60
77728;BMP280;68312;53.502;10.030;2023-03-14T00:10:40;99054.84;;;10.52
77728;BMP280;68312;53.502;10.030;2023-03-14T00:13:06;99071.63;;;10.48
77728;BMP280;68312;53.502;10.030;2023-03-14T00:15:33;99071.81;;;10.58
77728;BMP280;68312;53.502;10.030;2023-03-14T00:17:59;99060.22;;;10.59
77728;BMP280;68312;53.502;10.030;2023-03-14T00:20:25;99062.59;;;10.71
77728;BMP280;68312;53.502;10.030;2023-03-14T00:22:51;99063.25;;;10.65
77728;BMP280;68312;53.502;10.030;2023-03-14T00:25:17;99055.59;;;10.78
77728;BMP280;68312;53.502;10.030;2023-03-14T00:27:43;99040.66;;;10.82
77728;BMP280;68312;53.502;10.030;2023-03-14T00:30:09;99045.50;;;10.80
77728;BMP280;68312;53.502;10.030;2023-03-14T00:32:35;99030.34;;;10.71
77728;BMP280;68312;53.502;10.030;2023-03-14T00:35:05;99026.19;;;10.66
77728;BMP280;68312;53.502;10.030;2023-03-14T00:37:31;99020.94;;;10.66
77728;BMP280;68312;53.502;10.030;2023-03-14T00:39:56;99025.81;;;10.68
77728;BMP280;68312;53.502;10.030;2023-03-14T00:42:23;99023.19;;;10.68
77728;BMP280;68312;53.502;10.030;2023-03-14T00:44:49;99016.81;;;10.65
77728;BMP280;68312;53.502;10.030;2023-03-14T00:47:14;99008.25;;;10.72
77728;BMP280;68312;53.502;10.030;2023-03-14T00:49:40;99008.44;;;10.60
77728;BMP280;68312;53.502;10.030;2023-03-14T00:52:08;99001.91;;;10.47
77728;BMP280;68312;53.502;10.030;2023-03-14T00:54:34;98999.22;;;10.43
77728;BMP280;68312;53.502;10.030;2023-03-14T00:57:00;99001.69;;;10.33
77728;BMP280;68312;53.502;10.030;2023-03-14T00:59:25;98999.78;;;10.30
77728;BMP280;68312;53.502;10.030;2023-03-14T01:01:51;99010.22;;;10.27
77728;BMP280;68312;53.502;10.030;2023-03-14T01:04:16;99015.91;;;10.32
77728;BMP280;68312;53.502;10.030;2023-03-14T01:06:42;99023.03;;;10.32
77728;BMP280;68312;53.502;10.030;2023-03-14T01:09:08;99016.38;;;10.38
77728;BMP280;68312;53.502;10.030;2023-03-14T01:11:34;99025.44;;;10.40
77728;BMP280;68312;53.502;10.030;2023-03-14T01:14:02;99031.97;;;10.53
77728;BMP280;68312;53.502;10.030;2023-03-14T01:16:32;99037.63;;;10.55
77728;BMP280;68312;53.502;10.030;2023-03-14T01:19:03;99037.63;;;10.55
77728;BMP280;68312;53.502;10.030;2023-03-14T01:21:31;99031.69;;;10.58
77728;BMP280;68312;53.502;10.030;2023-03-14T01:24:00;99030.59;;;10.62
77728;BMP280;68312;53.502;10.030;2023-03-14T01:26:30;99036.44;;;10.74
77728;BMP280;68312;53.502;10.030;2023-03-14T01:28:58;99028.19;;;10.76
77728;BMP280;68312;53.502;10.030;2023-03-14T01:31:26;99015.47;;;10.78
77728;BMP280;68312;53.502;10.030;2023-03-14T01:33:52;98995.56;;;10.77
77728;BMP280;68312;53.502;10.030;2023-03-14T01:36:18;98986.72;;;10.63
77728;BMP280;68312;53.502;10.030;2023-03-14T01:38:44;98978.44;;;10.61
77728;BMP280;68312;53.502;10.030;2023-03-14T01:41:14;98965.06;;;10.69
77728;BMP280;68312;53.502;10.030;2023-03-14T01:43:44;98957.19;;;10.69
77728;BMP280;68312;53.502;10.030;2023-03-14T01:46:42;98948.63;;;10.72
77728;BMP280;68312;53.502;10.030;2023-03-14T01:52:16;98953.13;;;10.72
77728;BMP280;68312;53.502;10.030;2023-03-14T01:57:39;98960.91;;;10.65
77728;BMP280;68312;53.502;10.030;2023-03-14T02:00:12;98957.94;;;10.66
77728;BMP280;68312;53.502;10.030;2023-03-14T02:02:44;98956.69;;;10.60
77728;BMP280;68312;53.502;10.030;2023-03-14T02:05:16;98959.47;;;10.71
77728;BMP280;68312;53.502;10.030;2023-03-14T02:07:55;98956.44;;;10.65
77728;BMP280;68312;53.502;10.030;2023-03-14T02:10:35;98948.16;;;10.63
77728;BMP280;68312;53.502;10.030;2023-03-14T02:13:06;98935.16;;;10.73
77728;BMP280;68312;53.502;10.030;2023-03-14T02:15:33;98918.94;;;10.68
77728;BMP280;68312;53.502;10.030;2023-03-14T02:18:01;98894.47;;;10.57
77728;BMP280;68312;53.502;10.030;2023-03-14T02:23:48;98881.00;;;10.59
77728;BMP280;68312;53.502;10.030;2023-03-14T02:26:35;98887.13;;;10.73
77728;BMP280;68312;53.502;10.030;2023-03-14T02:29:08;98891.56;;;10.69
77728;BMP280;68312;53.502;10.030;2023-03-14T02:31:34;98879.63;;;10.72
77728;BMP280;68312;53.502;10.030;2023-03-14T02:34:00;98891.72;;;10.83
77728;BMP280;68312;53.502;10.030;2023-03-14T02:36:28;98894.25;;;10.73
77728;BMP280;68312;53.502;10.030;2023-03-14T02:39:04;98896.22;;;10.82
77728;BMP280;68312;53.502;10.030;2023-03-14T02:41:46;98901.50;;;10.82
77728;BMP280;68312;53.502;10.030;2023-03-14T02:44:14;98901.03;;;10.77
77728;BMP280;68312;53.502;10.030;2023-03-14T02:46:40;98905.88;;;10.75
77728;BMP280;68312;53.502;10.030;2023-03-14T02:49:08;98902.13;;;10.73
77728;BMP280;68312;53.502;10.030;2023-03-14T02:51:39;98899.38;;;10.62
77728;BMP280;68312;53.502;10.030;2023-03-14T02:54:11;98906.50;;;10.62
77728;BMP280;68312;53.502;10.030;2023-03-14T02:56:36;98897.59;;;10.70
77728;BMP280;68312;53.502;10.030;2023-03-14T02:59:05;98901.25;;;10.62
77728;BMP280;68312;53.502;10.030;2023-03-14T03:01:33;98901.31;;;10.65
77728;BMP280;68312;53.502;10.030;2023-03-14T03:03:59;98905.06;;;10.68
77728;BMP280;68312;53.502;10.030;2023-03-14T03:06:25;98908.06;;;10.66
77728;BMP280;68312;53.502;10.030;2023-03-14T03:08:51;98913.41;;;10.76
77728;BMP280;68312;53.502;10.030;2023-03-14T03:11:17;98909.78;;;10.84
77728;BMP280;68312;53.502;10.030;2023-03-14T03:13:43;98901.59;;;10.89
77728;BMP280;68312;53.502;10.030;2023-03-14T03:16:08;98901.63;;;10.93
77728;BMP280;68312;53.502;10.030;2023-03-14T03:18:34;98904.72;;;11.05
77728;BMP280;68312;53.502;10.030;2023-03-14T03:21:01;98895.84;;;11.16
77728;BMP280;68312;53.502;10.030;2023-03-14T03:23:29;98868.84;;;11.16
77728;BMP280;68312;53.502;10.030;2023-03-14T03:25:54;98882.44;;;11.28
77728;BMP280;68312;53.502;10.030;2023-03-14T03:28:20;98874.56;;;11.28
77728;BMP280;68312;53.502;10.030;2023-03-14T03:30:46;98869.75;;;11.33
77728;BMP280;68312;53.502;10.030;2023-03-14T03:33:12;98882.50;;;11.35
77728;BMP280;68312;53.502;10.030;2023-03-14T03:35:49;98876.88;;;11.36
77728;BMP280;68312;53.502;10.030;2023-03-14T03:38:15;98870.94;;;11.39
77728;BMP280;68312;53.502;10.030;2023-03-14T03:40:42;98869.06;;;11.43
77728;BMP280;68312;53.502;10.030;2023-03-14T03:43:08;98869.47;;;11.45
77728;BMP280;68312;53.502;10.030;2023-03-14T03:45:34;98854.09;;;11.51
77728;BMP280;68312;53.502;10.030;2023-03-14T03:47:59;98854.03;;;11.40
77728;BMP280;68312;53.502;10.030;2023-03-14T03:50:28;98844.66;;;11.39
77728;BMP280;68312;53.502;10.030;2023-03-14T03:52:53;98843.72;;;11.22
77728;BMP280;68312;53.502;10.030;2023-03-14T03:55:19;98849.03;;;11.25
77728;BMP280;68312;53.502;10.030;2023-03-14T03:57:44;98860.97;;;11.19
77728;BMP280;68312;53.502;10.030;2023-03-14T04:00:10;98862.00;;;11.08
77728;BMP280;68312;53.502;10.030;2023-03-14T04:02:37;98855.28;;;11.10
77728;BMP280;68312;53.502;10.030;2023-03-14T04:05:03;98858.97;;;11.06
77728;BMP280;68312;53.502;10.030;2023-03-14T04:07:31;98860.19;;;11.12
77728;BMP280;68312;53.502;10.030;2023-03-14T04:09:57;98847.69;;;11.02
77728;BMP280;68312;53.502;10.030;2023-03-14T04:12:23;98838.41;;;11.15
77728;BMP280;68312;53.502;10.030;2023-03-14T04:14:49;98848.69;;;11.30
77728;BMP280;68312;53.502;10.030;2023-03-14T04:17:14;98845.66;;;11.25
77728;BMP280;68312;53.502;10.030;2023-03-14T04:19:40;98836.91;;;11.14
77728;BMP280;68312;53.502;10.030;2023-03-14T04:22:05;98830.13;;;11.09
77728;BMP280;68312;53.502;10.030;2023-03-14T04:24:31;98825.91;;;11.05
77728;BMP280;68312;53.502;10.030;2023-03-14T04:26:56;98834.91;;;11.01
77728;BMP280;68312;53.502;10.030;2023-03-14T04:29:22;98823.41;;;11.12
77728;BMP280;68312;53.502;10.030;2023-03-14T04:31:48;98831.28;;;11.12
77728;BMP280;68312;53.502;10.030;2023-03-14T04:34:13;98817.75;;;11.10
77728;BMP280;68312;53.502;10.030;2023-03-14T04:36:39;98824.44;;;11.04
77728;BMP280;68312;53.502;10.030;2023-03-14T04:39:04;98810.69;;;11.21
77728;BMP280;68312;53.502;10.030;2023-03-14T04:41:30;98803.63;;;11.25
77728;BMP280;68312;53.502;10.030;2023-03-14T04:43:55;98805.84;;;11.23
77728;BMP280;68312;53.502;10.030;2023-03-14T04:46:21;98808.06;;;11.21
77728;BMP280;68312;53.502;10.030;2023-03-14T04:48:46;98820.84;;;11.19
77728;BMP280;68312;53.502;10.030;2023-03-14T04:51:12;98809.75;;;11.39
77728;BMP280;68312;53.502;10.030;2023-03-14T04:53:37;98802.97;;;11.38
77728;BMP280;68312;53.502;10.030;2023-03-14T04:56:03;98785.78;;;11.47
77728;BMP280;68312;53.502;10.030;2023-03-14T04:58:29;98789.09;;;11.44
77728;BMP280;68312;53.502;10.030;2023-03-14T05:00:55;98794.78;;;11.50
77728;BMP280;68312;53.502;10.030;2023-03-14T05:03:20;98798.13;;;11.47
77728;BMP280;68312;53.502;10.030;2023-03-14T05:05:46;98769.22;;;11.43
77728;BMP280;68312;53.502;10.030;2023-03-14T05:08:12;98791.34;;;11.39
77728;BMP280;68312;53.502;10.030;2023-03-14T05:10:38;98796.13;;;11.30
77728;BMP280;68312;53.502;10.030;2023-03-14T05:13:03;98780.34;;;11.27
77728;BMP280;68312;53.502;10.030;2023-03-14T05:15:29;98778.03;;;11.22
77728;BMP280;68312;53.502;10.030;2023-03-14T05:17:54;98782.91;;;11.16
77728;BMP280;68312;53.502;10.030;2023-03-14T05:20:20;98781.31;;;11.08
77728;BMP280;68312;53.502;10.030;2023-03-14T05:22:46;98802.00;;;11.13
77728;BMP280;68312;53.502;10.030;2023-03-14T05:25:12;98774.63;;;11.14
77728;BMP280;68312;53.502;10.030;2023-03-14T05:27:38;98781.03;;;11.17
77728;BMP280;68312;53.502;10.030;2023-03-14T05:30:05;98778.06;;;11.18
77728;BMP280;68312;53.502;10.030;2023-03-14T05:32:32;98784.06;;;11.19
77728;BMP280;68312;53.502;10.030;2023-03-14T05:34:58;98791.88;;;11.15
77728;BMP280;68312;53.502;10.030;2023-03-14T05:37:27;98780.28;;;11.20
77728;BMP280;68312;53.502;10.030;2023-03-14T05:39:53;98781.75;;;11.14
77728;BMP280;68312;53.502;10.030;2023-03-14T05:42:19;98790.69;;;11.06
77728;BMP280;68312;53.502;10.030;2023-03-14T05:44:44;98781.31;;;11.08
77728;BMP280;68312;53.502;10.030;2023-03-14T05:47:10;98787.72;;;11.11
77728;BMP280;68312;53.502;10.030;2023-03-14T05:49:36;98785.00;;;11.01
77728;BMP280;68312;53.502;10.030;2023-03-14T05:52:01;98782.38;;;10.97
77728;BMP280;68312;53.502;10.030;2023-03-14T05:54:27;98773.06;;;11.03
77728;BMP280;68312;53.502;10.030;2023-03-14T05:56:52;98774.19;;;11.05
77728;BMP280;68312;53.502;10.030;2023-03-14T05:59:18;98780.94;;;11.03
77728;BMP280;68312;53.502;10.030;2023-03-14T06:01:43;98770.31;;;10.93
77728;BMP280;68312;53.502;10.030;2023-03-14T06:04:09;98768.78;;;10.88
77728;BMP280;68312;53.502;10.030;2023-03-14T06:06:34;98762.72;;;10.81
77728;BMP280;68312;53.502;10.030;2023-03-14T06:09:01;98764.88;;;10.75
77728;BMP280;68312;53.502;10.030;2023-03-14T06:11:26;98766.81;;;10.78
77728;BMP280;68312;53.502;10.030;2023-03-14T06:13:52;98758.28;;;10.88
77728;BMP280;68312;53.502;10.030;2023-03-14T06:16:17;98761.97;;;10.84
77728;BMP280;68312;53.502;10.030;2023-03-14T06:18:43;98764.97;;;10.82
77728;BMP280;68312;53.502;10.030;2023-03-14T06:21:11;98776.97;;;10.80
77728;BMP280;68312;53.502;10.030;2023-03-14T06:23:37;98769.94;;;10.94
77728;BMP280;68312;53.502;10.030;2023-03-14T06:26:04;98767.00;;;10.99
77728;BMP280;68312;53.502;10.030;2023-03-14T06:28:30;98776.44;;;11.03
77728;BMP280;68312;53.502;10.030;2023-03-14T06:30:55;98775.59;;;10.96
77728;BMP280;68312;53.502;10.030;2023-03-14T06:33:21;98780.47;;;10.98
77728;BMP280;68312;53.502;10.030;2023-03-14T06:35:46;98785.66;;;10.87
77728;BMP280;68312;53.502;10.030;2023-03-14T06:38:12;98793.75;;;10.72
77728;BMP280;68312;53.502;10.030;2023-03-14T06:40:37;98800.22;;;10.81
77728;BMP280;68312;53.502;10.030;2023-03-14T06:43:03;98800.31;;;10.88
77728;BMP280;68312;53.502;10.030;2023-03-14T06:45:28;98798.13;;;10.97
77728;BMP280;68312;53.502;10.030;2023-03-14T06:47:54;98822.19;;;11.06
77728;BMP280;68312;53.502;10.030;2023-03-14T06:50:19;98804.16;;;11.04
77728;BMP280;68312;53.502;10.030;2023-03-14T06:52:47;98816.34;;;11.23
77728;BMP280;68312;53.502;10.030;2023-03-14T06:55:14;98806.44;;;11.52
77728;BMP280;68312;53.502;10.030;2023-03-14T06:57:40;98812.41;;;11.49
77728;BMP280;68312;53.502;10.030;2023-03-14T07:00:07;98802.22;;;11.37
77728;BMP280;68312;53.502;10.030;2023-03-14T07:02:33;98813.38;;;11.24
77728;BMP280;68312;53.502;10.030;2023-03-14T07:04:59;98822.31;;;11.16
77728;BMP280;68312;53.502;10.030;2023-03-14T07:07:26;98822.31;;;11.16
77728;BMP280;68312;53.502;10.030;2023-03-14T07:09:52;98822.25;;;11.09
77728;BMP280;68312;53.502;10.030;2023-03-14T07:12:18;98835.31;;;11.02
77728;BMP280;68312;53.502;10.030;2023-03-14T07:14:44;98840.03;;;10.90
77728;BMP280;68312;53.502;10.030;2023-03-14T07:17:10;98839.34;;;10.93
77728;BMP280;68312;53.502;10.030;2023-03-14T07:19:35;98832.22;;;10.94
77728;BMP280;68312;53.502;10.030;2023-03-14T07:22:01;98838.59;;;10.93
77728;BMP280;68312;53.502;10.030;2023-03-14T07:24:26;98843.13;;;10.96
77728;BMP280;68312;53.502;10.030;2023-03-14T07:26:52;98851.06;;;11.02
77728;BMP280;68312;53.502;10.030;2023-03-14T07:29:17;98839.88;;;11.12
77728;BMP280;68312;53.502;10.030;2023-03-14T07:31:43;98845.66;;;11.25
77728;BMP280;68312;53.502;10.030;2023-03-14T07:34:08;98838.59;;;11.35
77728;BMP280;68312;53.502;10.030;2023-03-14T07:36:34;98842.72;;;11.36
77728;BMP280;68312;53.502;10.030;2023-03-14T07:39:00;98846.25;;;11.58
77728;BMP280;68312;53.502;10.030;2023-03-14T07:41:26;98840.41;;;11.78
77728;BMP280;68312;53.502;10.030;2023-03-14T07:43:51;98842.44;;;12.05
77728;BMP280;68312;53.502;10.030;2023-03-14T07:46:17;98844.38;;;12.25
77728;BMP280;68312;53.502;10.030;2023-03-14T07:48:45;98824.09;;;12.15
77728;BMP280;68312;53.502;10.030;2023-03-14T07:51:10;98850.34;;;12.08
77728;BMP280;68312;53.502;10.030;2023-03-14T07:53:36;98851.50;;;12.14
77728;BMP280;68312;53.502;10.030;2023-03-14T07:56:01;98858.19;;;11.98
77728;BMP280;68312;53.502;10.030;2023-03-14T07:58:27;98846.44;;;11.82
77728;BMP280;68312;53.502;10.030;2023-03-14T08:00:52;98852.03;;;11.73
77728;BMP280;68312;53.502;10.030;2023-03-14T08:03:18;98851.16;;;11.56
77728;BMP280;68312;53.502;10.030;2023-03-14T08:05:47;98853.31;;;11.43
77728;BMP280;68312;53.502;10.030;2023-03-14T08:08:15;98848.03;;;11.40
77728;BMP280;68312;53.502;10.030;2023-03-14T08:10:40;98847.66;;;11.41
77728;BMP280;68312;53.502;10.030;2023-03-14T08:13:06;98827.47;;;11.52
77728;BMP280;68312;53.502;10.030;2023-03-14T08:15:31;98849.81;;;11.82
77728;BMP280;68312;53.502;10.030;2023-03-14T08:17:57;98854.53;;;12.16
77728;BMP280;68312;53.502;10.030;2023-03-14T08:20:25;98828.66;;;12.32
77728;BMP280;68312;53.502;10.030;2023-03-14T08:23:02;98832.38;;;12.24
77728;BMP280;68312;53.502;10.030;2023-03-14T08:25:34;98829.09;;;12.54
77728;BMP280;68312;53.502;10.030;2023-03-14T08:27:59;98841.81;;;12.39
77728;BMP280;68312;53.502;10.030;2023-03-14T08:30:25;98823.69;;;12.13
77728;BMP280;68312;53.502;10.030;2023-03-14T08:32:51;98832.69;;;12.09
77728;BMP280;68312;53.502;10.030;2023-03-14T08:35:16;98838.31;;;12.07
77728;BMP280;68312;53.502;10.030;2023-03-14T08:37:42;98834.25;;;12.27
77728;BMP280;68312;53.502;10.030;2023-03-14T08:40:08;98841.75;;;12.25
77728;BMP280;68312;53.502;10.030;2023-03-14T08:42:39;98832.81;;;12.36
77728;BMP280;68312;53.502;10.030;2023-03-14T08:45:06;98838.84;;;12.40
77728;BMP280;68312;53.502;10.030;2023-03-14T08:47:33;98832.00;;;12.22
77728;BMP280;68312;53.502;10.030;2023-03-14T08:49:59;98838.41;;;12.28
77728;BMP280;68312;53.502;10.030;2023-03-14T08:52:24;98837.66;;;12.38
77728;BMP280;68312;53.502;10.030;2023-03-14T08:54:50;98826.44;;;12.44
77728;BMP280;68312;53.502;10.030;2023-03-14T08:57:16;98832.72;;;12.16
77728;BMP280;68312;53.502;10.030;2023-03-14T08:59:41;98826.75;;;12.22
77728;BMP280;68312;53.502;10.030;2023-03-14T09:02:10;98822.50;;;12.00
77728;BMP280;68312;53.502;10.030;2023-03-14T09:04:36;98825.84;;;11.97
77728;BMP280;68312;53.502;10.030;2023-03-14T09:07:02;98825.47;;;11.92
77728;BMP280;68312;53.502;10.030;2023-03-14T09:09:28;98835.69;;;12.11
77728;BMP280;68312;53.502;10.030;2023-03-14T09:11:55;98808.69;;;12.24
77728;BMP280;68312;53.502;10.030;2023-03-14T09:14:21;98824.63;;;12.65
77728;BMP280;68312;53.502;10.030;2023-03-14T09:16:48;98815.59;;;13.01
77728;BMP280;68312;53.502;10.030;2023-03-14T09:19:14;98811.09;;;13.01
77728;BMP280;68312;53.502;10.030;2023-03-14T09:21:39;98817.81;;;12.54
77728;BMP280;68312;53.502;10.030;2023-03-14T09:24:11;98812.41;;;12.13
77728;BMP280;68312;53.502;10.030;2023-03-14T09:26:37;98815.31;;;11.97
77728;BMP280;68312;53.502;10.030;2023-03-14T09:29:03;98840.03;;;11.79
77728;BMP280;68312;53.502;10.030;2023-03-14T09:31:28;98843.38;;;11.73
77728;BMP280;68312;53.502;10.030;2023-03-14T09:33:55;98840.69;;;11.66
77728;BMP280;68312;53.502;10.030;2023-03-14T09:36:20;98841.88;;;11.68
77728;BMP280;68312;53.502;10.030;2023-03-14T09:38:46;98843.88;;;11.95
77728;BMP280;68312;53.502;10.030;2023-03-14T09:41:45;98840.13;;;11.96
77728;BMP280;68312;53.502;10.030;2023-03-14T09:44:32;98854.56;;;11.63
77728;BMP280;68312;53.502;10.030;2023-03-14T09:47:12;98877.88;;;11.22
77728;BMP280;68312;53.502;10.030;2023-03-14T09:49:40;98890.41;;;10.96
77728;BMP280;68312;53.502;10.030;2023-03-14T09:52:35;98888.53;;;10.64
77728;BMP280;68312;53.502;10.030;2023-03-14T09:55:11;98886.03;;;10.45
77728;BMP280;68312;53.502;10.030;2023-03-14T09:57:42;98896.09;;;10.14
77728;BMP280;68312;53.502;10.030;2023-03-14T10:00:23;98907.22;;;10.04
77728;BMP280;68312;53.502;10.030;2023-03-14T10:03:00;98937.78;;;9.97
77728;BMP280;68312;53.502;10.030;2023-03-14T10:05:54;98950.28;;;9.37
77728;BMP280;68312;53.502;10.030;2023-03-14T10:08:21;98978.28;;;8.62
77728;BMP280;68312;53.502;10.030;2023-03-14T10:10:46;98988.94;;;8.38
77728;BMP280;68312;53.502;10.030;2023-03-14T10:13:19;99001.69;;;8.24
77728;BMP280;68312;53.502;10.030;2023-03-14T10:18:32;99025.25;;;7.97
77728;BMP280;68312;53.502;10.030;2023-03-14T10:21:07;99023.50;;;7.86
77728;BMP280;68312;53.502;10.030;2023-03-14T10:23:46;99030.16;;;7.83
77728;BMP280;68312;53.502;10.030;2023-03-14T10:26:15;99039.84;;;7.83
77728;BMP280;68312;53.502;10.030;2023-03-14T10:28:46;99049.28;;;7.87
77728;BMP280;68312;53.502;10.030;2023-03-14T10:31:17;99069.16;;;7.76
77728;BMP280;68312;53.502;10.030;2023-03-14T10:34:04;99077.56;;;7.70
77728;BMP280;68312;53.502;10.030;2023-03-14T10:36:33;99077.63;;;7.46
77728;BMP280;68312;53.502;10.030;2023-03-14T10:42:24;99118.16;;;7.17
77728;BMP280;68312;53.502;10.030;2023-03-14T10:45:02;99119.56;;;6.91
77728;BMP280;68312;53.502;10.030;2023-03-14T10:47:33;99135.97;;;6.68
77728;BMP280;68312;53.502;10.030;2023-03-14T10:50:23;99153.63;;;6.51
77728;BMP280;68312;53.502;10.030;2023-03-14T10:52:59;99181.59;;;6.30
77728;BMP280;68312;53.502;10.030;2023-03-14T10:55:42;99192.66;;;6.07
77728;BMP280;68312;53.502;10.030;2023-03-14T10:58:21;99204.19;;;6.06
77728;BMP280;68312;53.502;10.030;2023-03-14T11:04:15;99233.75;;;6.01
77728;BMP280;68312;53.502;10.030;2023-03-14T11:07:33;99236.66;;;5.80
77728;BMP280;68312;53.502;10.030;2023-03-14T11:10:24;99268.16;;;5.58
77728;BMP280;68312;53.502;10.030;2023-03-14T11:13:37;99261.91;;;5.51
77728;BMP280;68312;53.502;10.030;2023-03-14T11:16:23;99284.75;;;5.45
77728;BMP280;68312;53.502;10.030;2023-03-14T11:19:03;99292.00;;;5.31
77728;BMP280;68312;53.502;10.030;2023-03-14T11:25:32;99308.53;;;5.27
77728;BMP280;68312;53.502;10.030;2023-03-14T11:28:34;99328.88;;;5.33
77728;BMP280;68312;53.502;10.030;2023-03-14T11:34:01;99363.34;;;5.14
77728;BMP280;68312;53.502;10.030;2023-03-14T11:36:55;99375.13;;;5.11
77728;BMP280;68312;53.502;10.030;2023-03-14T11:39:38;99385.09;;;5.09
77728;BMP280;68312;53.502;10.030;2023-03-14T11:42:16;99403.16;;;5.06
77728;BMP280;68312;53.502;10.030;2023-03-14T11:44:46;99408.81;;;5.08
77728;BMP280;68312;53.502;10.030;2023-03-14T11:47:21;99408.81;;;5.08
77728;BMP280;68312;53.502;10.030;2023-03-14T11:50:17;99423.38;;;5.09
77728;BMP280;68312;53.502;10.030;2023-03-14T11:53:09;99414.31;;;5.23
77728;BMP280;68312;53.502;10.030;2023-03-14T11:55:44;99424.44;;;5.25
77728;BMP280;68312;53.502;10.030;2023-03-14T12:00:49;99433.72;;;5.51
77728;BMP280;68312;53.502;10.030;2023-03-14T12:03:29;99432.66;;;5.68
77728;BMP280;68312;53.502;10.030;2023-03-14T12:06:27;99430.94;;;5.72
77728;BMP280;68312;53.502;10.030;2023-03-14T12:09:06;99439.56;;;5.56
77728;BMP280;68312;53.502;10.030;2023-03-14T12:11:35;99450.44;;;5.50
77728;BMP280;68312;53.502;10.030;2023-03-14T12:14:25;99454.44;;;5.39
77728;BMP280;68312;53.502;10.030;2023-03-14T12:16:57;99444.94;;;5.34
77728;BMP280;68312;53.502;10.030;2023-03-14T12:19:43;99465.41;;;5.44
77728;BMP280;68312;53.502;10.030;2023-03-14T12:22:27;99483.03;;;5.47
77728;BMP280;68312;53.502;10.030;2023-03-14T12:35:42;99501.56;;;5.71
77728;BMP280;68312;53.502;10.030;2023-03-14T12:47:00;99533.69;;;6.08
77728;BMP280;68312;53.502;10.030;2023-03-14T12:50:11;99534.28;;;6.05
77728;BMP280;68312;53.502;10.030;2023-03-14T12:52:57;99529.69;;;6.02
77728;BMP280;68312;53.502;10.030;2023-03-14T12:56:03;99552.06;;;6.03
77728;BMP280;68312;53.502;10.030;2023-03-14T12:59:05;99571.84;;;6.04
77728;BMP280;68312;53.502;10.030;2023-03-14T13:02:02;99583.19;;;6.00
77728;BMP280;68312;53.502;10.030;2023-03-14T13:04:48;99588.06;;;6.01
77728;BMP280;68312;53.502;10.030;2023-03-14T13:07:33;99613.38;;;5.76
77728;BMP280;68312;53.502;10.030;2023-03-14T13:10:21;99624.50;;;5.43
77728;BMP280;68312;53.502;10.030;2023-03-14T13:13:11;99624.63;;;5.29
77728;BMP280;68312;53.502;10.030;2023-03-14T13:15:46;99630.94;;;5.37
77728;BMP280;68312;53.502;10.030;2023-03-14T13:18:22;99634.50;;;5.41
77728;BMP280;68312;53.502;10.030;2023-03-14T13:21:09;99635.88;;;5.72
77728;BMP280;68312;53.502;10.030;2023-03-14T13:24:02;99652.00;;;6.24
77728;BMP280;68312;53.502;10.030;2023-03-14T13:26:43;99648.41;;;6.53
77728;BMP280;68312;53.502;10.030;2023-03-14T13:29:19;99648.06;;;6.72
77728;BMP280;68312;53.502;10.030;2023-03-14T13:31:54;99659.84;;;7.14
77728;BMP280;68312;53.502;10.030;2023-03-14T13:34:31;99656.81;;;7.41
77728;BMP280;68312;53.502;10.030;2023-03-14T13:36:59;99655.97;;;7.49
77728;BMP280;68312;53.502;10.030;2023-03-14T13:39:27;99665.69;;;7.20
77728;BMP280;68312;53.502;10.030;2023-03-14T13:41:58;99659.16;;;7.06
77728;BMP280;68312;53.502;10.030;2023-03-14T13:44:34;99671.53;;;6.80
77728;BMP280;68312;53.502;10.030;2023-03-14T13:47:05;99659.28;;;6.72
77728;BMP280;68312;53.502;10.030;2023-03-14T13:49:39;99683.38;;;6.69
77728;BMP280;68312;53.502;10.030;2023-03-14T13:52:22;99689.63;;;6.85
77728;BMP280;68312;53.502;10.030;2023-03-14T13:55:03;99675.72;;;7.10
77728;BMP280;68312;53.502;10.030;2023-03-14T13:57:47;99676.03;;;7.37
77728;BMP280;68312;53.502;10.030;2023-03-14T14:00:24;99706.91;;;7.63
77728;BMP280;68312;53.502;10.030;2023-03-14T14:02:57;99710.78;;;7.86
77728;BMP280;68312;53.502;10.030;2023-03-14T14:05:29;99694.63;;;7.64
77728;BMP280;68312;53.502;10.030;2023-03-14T14:07:56;99718.59;;;7.57
77728;BMP280;68312;53.502;10.030;2023-03-14T14:10:22;99723.38;;;7.27
77728;BMP280;68312;53.502;10.030;2023-03-14T14:13:10;99724.75;;;6.87
77728;BMP280;68312;53.502;10.030;2023-03-14T14:15:48;99721.13;;;6.55
77728;BMP280;68312;53.502;10.030;2023-03-14T14:18:21;99760.41;;;6.33
77728;BMP280;68312;53.502;10.030;2023-03-14T14:20:52;99779.56;;;6.29
77728;BMP280;68312;53.502;10.030;2023-03-14T14:23:21;99774.97;;;6.84
77728;BMP280;68312;53.502;10.030;2023-03-14T14:25:55;99781.09;;;7.71
77728;BMP280;68312;53.502;10.030;2023-03-14T14:28:28;99761.66;;;8.08
77728;BMP280;68312;53.502;10.030;2023-03-14T14:33:45;99795.06;;;8.03
77728;BMP280;68312;53.502;10.030;2023-03-14T14:36:42;99797.25;;;7.73
77728;BMP280;68312;53.502;10.030;2023-03-14T14:39:19;99829.03;;;7.38
77728;BMP280;68312;53.502;10.030;2023-03-14T14:41:50;99830.13;;;7.28
77728;BMP280;68312;53.502;10.030;2023-03-14T14:44:26;99836.00;;;7.09
77728;BMP280;68312;53.502;10.030;2023-03-14T14:46:57;99841.38;;;7.20
77728;BMP280;68312;53.502;10.030;2023-03-14T14:49:29;99835.50;;;7.23
77728;BMP280;68312;53.502;10.030;2023-03-14T14:52:04;99845.66;;;7.16
77728;BMP280;68312;53.502;10.030;2023-03-14T14:54:51;99860.91;;;6.98
77728;BMP280;68312;53.502;10.030;2023-03-14T14:57:25;99855.53;;;7.03
77728;BMP280;68312;53.502;10.030;2023-03-14T15:00:19;99872.25;;;6.93
77728;BMP280;68312;53.502;10.030;2023-03-14T15:02:52;99880.69;;;6.90
77728;BMP280;68312;53.502;10.030;2023-03-14T15:05:26;99878.09;;;6.74
77728;BMP280;68312;53.502;10.030;2023-03-14T15:07:55;99875.47;;;6.65
77728;BMP280;68312;53.502;10.030;2023-03-14T15:10:24;99886.84;;;6.69